Time;durP1;ratioP1;P1;durP2;ratioP2;P2;SDS_P1;SDS_P2;PMS_P1;PMS_P2;Temp;Humidity;BMP_temperature;BMP_pressure;BME280_temperature;BME280_humidity;BME280_pressure;Samples;Min_cycle;Max_cycle;Signal;HPM_P1;HPM_P2
2021/12/16 00:01:48;;;;;;;13.52;6.22;;;8.90;99.90;;;;;;5007725;28;20040;-76
2021/12/16 00:09:20;;;;;;;10.80;5.83;;;8.90;99.90;;;;;;5011527;28;20052;-77
2021/12/16 00:35:35;;;;;;;13.38;7.30;;;8.80;99.90;;;;;;5008279;28;20034;-75
2021/12/16 00:38:02;;;;;;;19.30;6.50;;;8.80;99.90;;;;;;5010166;28;20029;-76
2021/12/16 00:40:28;;;;;;;15.98;6.05;;;8.90;99.90;;;;;;5011128;28;20018;-76
2021/12/16 00:42:59;;;;;;;14.00;6.13;;;8.90;99.90;;;;;;5007407;28;20069;-76
2021/12/16 00:56:00;;;;;;;16.35;7.15;;;8.90;99.90;;;;;;5010685;28;20030;-78
2021/12/16 00:58:32;;;;;;;86.97;38.10;;;8.90;99.90;;;;;;5008140;28;20022;-76
2021/12/16 01:01:12;;;;;;;41.40;18.35;;;8.90;99.90;;;;;;4990241;28;20030;-76
2021/12/16 01:03:48;;;;;;;99.90;53.80;;;8.90;99.90;;;;;;5010783;28;20030;-76
2021/12/16 01:33:50;;;;;;;23.27;10.13;;;8.90;99.90;;;;;;5011264;28;20022;-75
2021/12/16 01:39:35;;;;;;;20.33;10.82;;;8.90;99.90;;;;;;5014904;28;20021;-77
2021/12/16 01:55:12;;;;;;;28.38;12.23;;;8.90;99.90;;;;;;4995656;28;20042;-76
2021/12/16 01:57:44;;;;;;;28.33;12.57;;;8.90;99.90;;;;;;4990511;28;20030;-75
2021/12/16 02:00:43;;;;;;;32.08;13.00;;;8.90;99.90;;;;;;4995473;28;20029;-76
2021/12/16 02:03:10;;;;;;;32.83;13.63;;;8.90;99.90;;;;;;5011925;28;20480;-77
2021/12/16 02:10:47;;;;;;;29.30;13.05;;;8.90;99.90;;;;;;5012303;28;20084;-77
2021/12/16 02:37:34;;;;;;;31.67;14.40;;;8.90;99.90;;;;;;5011674;28;20395;-76
2021/12/16 02:40:05;;;;;;;29.50;13.65;;;8.90;99.90;;;;;;5013450;28;20091;-76
2021/12/16 02:42:53;;;;;;;43.58;16.88;;;8.90;99.90;;;;;;5013205;28;20484;-75
2021/12/16 02:50:50;;;;;;;37.58;17.30;;;8.90;99.90;;;;;;5011103;28;20033;-78
2021/12/16 02:53:17;;;;;;;34.70;16.65;;;8.90;99.90;;;;;;4994803;28;20400;-76
2021/12/16 02:55:43;;;;;;;39.83;16.85;;;8.90;99.90;;;;;;5007293;28;20038;-78
2021/12/16 02:58:09;;;;;;;36.28;16.67;;;8.90;99.90;;;;;;5010119;28;20109;-76
2021/12/16 03:00:44;;;;;;;48.15;17.35;;;8.90;99.90;;;;;;4976761;28;20057;-76
2021/12/16 03:03:10;;;;;;;37.10;16.67;;;8.90;99.90;;;;;;4995352;28;20522;-76
2021/12/16 03:05:36;;;;;;;39.97;17.58;;;8.80;99.90;;;;;;4995645;28;20061;-76
2021/12/16 03:08:03;;;;;;;35.08;17.45;;;8.90;99.90;;;;;;5015300;28;20472;-77
2021/12/16 03:13:28;;;;;;;39.35;17.98;;;8.90;99.90;;;;;;5010691;28;20076;-76
2021/12/16 03:18:50;;;;;;;46.58;19.23;;;8.90;99.90;;;;;;5011679;28;20037;-76
2021/12/16 03:21:26;;;;;;;52.85;19.45;;;8.80;99.90;;;;;;5012467;28;20809;-76
2021/12/16 03:29:55;;;;;;;42.58;20.30;;;8.80;99.90;;;;;;5010883;28;20053;-76
2021/12/16 03:37:35;;;;;;;47.00;20.70;;;8.70;99.90;;;;;;4956498;28;20494;-76
2021/12/16 03:40:10;;;;;;;45.88;20.80;;;8.70;99.90;;;;;;4991928;28;20025;-76
2021/12/16 03:42:41;;;;;;;52.25;21.15;;;8.80;99.90;;;;;;5009825;28;20117;-76
2021/12/16 03:48:38;;;;;;;42.03;20.15;;;8.70;99.90;;;;;;4932745;29;20024;-76
2021/12/16 03:51:15;;;;;;;38.42;18.23;;;8.80;99.90;;;;;;4994156;28;20069;-76
2021/12/16 03:53:43;;;;;;;50.30;20.85;;;8.80;99.90;;;;;;5009624;28;20515;-76
2021/12/16 03:56:10;;;;;;;51.20;21.65;;;8.80;99.90;;;;;;5011325;28;20037;-77
2021/12/16 03:58:36;;;;;;;40.00;20.70;;;8.80;99.90;;;;;;4992293;28;20026;-76
2021/12/16 04:01:06;;;;;;;39.03;20.30;;;8.80;99.90;;;;;;5009949;28;20037;-77
2021/12/16 04:03:32;;;;;;;48.25;21.23;;;8.80;99.90;;;;;;4976766;28;20029;-76
2021/12/16 04:05:59;;;;;;;47.88;21.95;;;8.90;99.90;;;;;;5011553;28;20038;-77
2021/12/16 04:08:24;;;;;;;57.65;22.98;;;8.80;99.90;;;;;;5011818;28;20482;-77
2021/12/16 04:11:04;;;;;;;49.30;21.98;;;8.80;99.90;;;;;;5011986;28;20030;-76
2021/12/16 04:13:35;;;;;;;53.75;23.40;;;8.70;99.90;;;;;;4987329;28;20115;-76
2021/12/16 04:16:01;;;;;;;57.72;23.55;;;8.80;99.90;;;;;;4992795;28;20873;-76
2021/12/16 04:18:27;;;;;;;57.67;24.13;;;8.80;99.90;;;;;;5010673;28;20014;-76
2021/12/16 04:20:53;;;;;;;58.95;25.77;;;8.70;99.90;;;;;;5010630;28;20419;-76
2021/12/16 04:23:19;;;;;;;54.10;22.95;;;8.80;99.90;;;;;;4991320;28;20488;-77
2021/12/16 04:25:47;;;;;;;76.85;26.23;;;8.80;99.90;;;;;;4990794;28;20033;-76
2021/12/16 04:28:21;;;;;;;56.85;24.63;;;8.80;99.90;;;;;;5011082;28;20030;-77
2021/12/16 04:30:48;;;;;;;62.25;25.50;;;8.80;99.90;;;;;;5016743;28;20468;-76
2021/12/16 04:33:14;;;;;;;64.70;24.52;;;8.70;99.90;;;;;;5009192;28;20029;-77
2021/12/16 04:35:40;;;;;;;62.65;24.17;;;8.80;99.90;;;;;;5010406;28;20837;-76
2021/12/16 04:38:11;;;;;;;69.45;27.05;;;8.80;99.90;;;;;;5010372;28;20022;-77
2021/12/16 04:40:38;;;;;;;71.00;25.83;;;8.80;99.90;;;;;;5011733;28;20455;-77
2021/12/16 04:43:07;;;;;;;64.32;26.48;;;8.70;99.90;;;;;;5009223;28;20904;-77
2021/12/16 04:45:35;;;;;;;61.17;24.67;;;8.70;99.90;;;;;;5011356;28;20038;-77
2021/12/16 04:48:04;;;;;;;72.70;26.67;;;8.80;99.90;;;;;;4990034;28;20037;-77
2021/12/16 04:50:30;;;;;;;76.63;27.70;;;8.80;99.90;;;;;;5009839;28;20780;-77
2021/12/16 04:52:56;;;;;;;63.35;24.80;;;8.70;99.90;;;;;;5009559;28;20045;-77
2021/12/16 04:55:23;;;;;;;60.88;24.00;;;8.70;99.90;;;;;;4993218;28;20061;-76
2021/12/16 04:57:50;;;;;;;50.35;23.27;;;8.70;99.90;;;;;;5007426;28;20022;-76
2021/12/16 05:00:20;;;;;;;60.88;24.80;;;8.70;99.90;;;;;;4976634;28;20041;-77
2021/12/16 05:02:47;;;;;;;73.60;27.08;;;8.80;99.90;;;;;;5009665;28;20491;-77
2021/12/16 05:05:14;;;;;;;75.30;27.55;;;8.70;99.90;;;;;;5009722;28;20096;-78
2021/12/16 05:07:42;;;;;;;73.82;27.45;;;8.70;99.90;;;;;;4992781;28;20026;-77
2021/12/16 05:10:11;;;;;;;67.25;27.23;;;8.70;99.90;;;;;;5010563;28;20026;-77
2021/12/16 05:12:40;;;;;;;65.35;24.77;;;8.80;99.90;;;;;;5009817;28;20492;-77
2021/12/16 05:15:13;;;;;;;73.40;27.80;;;8.70;99.90;;;;;;5010795;28;20084;-77
2021/12/16 05:17:44;;;;;;;75.60;27.40;;;8.80;99.90;;;;;;5008587;28;20101;-77
2021/12/16 05:20:21;;;;;;;65.85;26.77;;;8.80;99.90;;;;;;4976970;28;20038;-76
2021/12/16 05:28:04;;;;;;;70.60;26.50;;;8.90;99.90;;;;;;5013014;28;20029;-77
2021/12/16 05:30:31;;;;;;;65.05;26.08;;;8.80;99.90;;;;;;5010830;28;20034;-76
2021/12/16 05:32:57;;;;;;;55.60;24.00;;;8.80;99.90;;;;;;5010662;28;20515;-77
2021/12/16 05:35:26;;;;;;;66.97;25.92;;;8.80;99.90;;;;;;4993910;28;20365;-77
2021/12/16 05:37:52;;;;;;;62.92;25.27;;;8.80;99.90;;;;;;4991498;28;20030;-77
2021/12/16 05:40:25;;;;;;;58.75;24.95;;;8.80;99.90;;;;;;4990966;28;20029;-76
2021/12/16 05:42:57;;;;;;;60.72;23.50;;;8.80;99.90;;;;;;5010407;28;20450;-76
2021/12/16 05:45:24;;;;;;;67.53;24.58;;;8.80;99.90;;;;;;5009514;28;20026;-77
2021/12/16 05:47:56;;;;;;;54.55;24.25;;;8.80;99.90;;;;;;4989923;28;20040;-76
2021/12/16 05:50:23;;;;;;;65.00;24.30;;;8.80;99.90;;;;;;5009613;28;20516;-76
2021/12/16 05:52:49;;;;;;;67.95;26.23;;;8.90;99.90;;;;;;5009358;28;20025;-80
2021/12/16 05:55:17;;;;;;;59.05;23.35;;;8.90;99.90;;;;;;5010427;28;20044;-76
2021/12/16 05:57:44;;;;;;;52.85;22.95;;;8.90;99.90;;;;;;4973388;28;20026;-75
2021/12/16 06:00:17;;;;;;;53.13;23.38;;;8.90;99.90;;;;;;5009637;28;20033;-76
2021/12/16 06:02:43;;;;;;;55.17;22.52;;;8.90;99.90;;;;;;5009535;28;20022;-76
2021/12/16 06:05:09;;;;;;;39.65;20.40;;;8.90;99.90;;;;;;5012451;28;20044;-76
2021/12/16 06:07:35;;;;;;;37.33;20.00;;;8.90;99.90;;;;;;4994748;28;20038;-76
2021/12/16 06:10:02;;;;;;;50.47;21.65;;;8.90;99.90;;;;;;5012169;28;20152;-75
2021/12/16 06:12:29;;;;;;;55.92;22.77;;;8.90;99.90;;;;;;4995277;28;20037;-77
2021/12/16 06:15:13;;;;;;;44.35;20.55;;;8.90;99.90;;;;;;5011167;28;20042;-77
2021/12/16 06:26:27;;;;;;;37.88;18.05;;;8.90;99.90;;;;;;5012533;28;20028;-76
2021/12/16 06:28:38;;;;;;;44.50;18.95;;;8.90;99.90;;;;;;5013163;28;20447;-76
2021/12/16 06:31:04;;;;;;;35.15;17.65;;;8.90;99.90;;;;;;5012131;28;20029;-75
2021/12/16 06:33:30;;;;;;;40.47;18.20;;;9.00;99.90;;;;;;4992542;28;20056;-77
2021/12/16 06:35:55;;;;;;;34.13;17.40;;;9.00;99.90;;;;;;4993005;28;20052;-77
2021/12/16 06:38:23;;;;;;;30.05;15.10;;;9.00;99.90;;;;;;5014686;28;20025;-78
2021/12/16 06:40:49;;;;;;;34.63;16.20;;;9.10;99.90;;;;;;5011409;28;20021;-77
2021/12/16 06:43:17;;;;;;;38.20;16.17;;;9.10;99.90;;;;;;5010547;28;20037;-76
2021/12/16 06:45:47;;;;;;;38.80;16.98;;;9.10;99.90;;;;;;5009721;28;20042;-77
2021/12/16 06:48:22;;;;;;;36.70;17.33;;;9.10;99.90;;;;;;5011174;28;20026;-76
2021/12/16 06:50:54;;;;;;;46.15;16.45;;;9.20;99.90;;;;;;4995784;28;20029;-77
2021/12/16 06:53:29;;;;;;;37.35;15.35;;;9.20;99.90;;;;;;5010195;28;20026;-75
2021/12/16 06:56:08;;;;;;;48.92;16.67;;;9.10;99.90;;;;;;5014376;28;20048;-77
2021/12/16 07:01:11;;;;;;;35.80;14.52;;;9.10;99.90;;;;;;4997056;28;20391;-77
2021/12/16 07:03:47;;;;;;;37.38;14.82;;;9.10;99.90;;;;;;5010513;28;20511;-78
2021/12/16 07:06:20;;;;;;;40.15;15.35;;;9.10;99.90;;;;;;4996949;28;20022;-77
2021/12/16 07:08:48;;;;;;;30.67;14.10;;;9.10;99.90;;;;;;5014056;28;20029;-79
2021/12/16 07:11:14;;;;;;;34.97;15.55;;;9.10;99.90;;;;;;4995383;28;20105;-76
2021/12/16 07:13:42;;;;;;;35.22;15.02;;;9.10;99.90;;;;;;5011583;28;20035;-77
2021/12/16 07:16:12;;;;;;;39.10;14.70;;;9.10;99.90;;;;;;5006772;28;20029;-76
2021/12/16 07:18:38;;;;;;;28.90;13.23;;;9.10;99.90;;;;;;4995081;28;20097;-74
2021/12/16 07:21:05;;;;;;;33.45;12.90;;;9.10;99.90;;;;;;5007557;28;20026;-76
2021/12/16 07:23:32;;;;;;;31.65;13.52;;;9.10;99.90;;;;;;5010324;28;20026;-76
2021/12/16 07:25:58;;;;;;;35.45;14.38;;;9.20;99.90;;;;;;5009605;28;20033;-76
2021/12/16 07:28:25;;;;;;;35.95;14.52;;;9.20;99.90;;;;;;5004116;28;20040;-75
2021/12/16 07:30:51;;;;;;;36.28;14.25;;;9.20;99.90;;;;;;4978363;28;20476;-75
2021/12/16 07:33:17;;;;;;;34.95;14.48;;;9.20;99.90;;;;;;5008895;28;20530;-76
2021/12/16 07:35:45;;;;;;;37.38;13.65;;;9.20;99.90;;;;;;4990500;28;20026;-75
2021/12/16 07:38:11;;;;;;;29.02;13.85;;;9.20;99.90;;;;;;4992652;28;21713;-75
2021/12/16 07:40:39;;;;;;;36.83;14.32;;;9.20;99.90;;;;;;5010795;28;20055;-76
2021/12/16 07:45:34;;;;;;;35.08;13.68;;;9.20;99.90;;;;;;5008801;28;20033;-76
2021/12/16 07:48:00;;;;;;;32.10;13.18;;;9.20;99.90;;;;;;4990209;28;20140;-75
2021/12/16 07:50:27;;;;;;;27.92;12.63;;;9.20;99.90;;;;;;5016123;28;20021;-75
2021/12/16 07:52:53;;;;;;;26.25;12.20;;;9.20;99.90;;;;;;4993666;28;20054;-75
2021/12/16 07:55:20;;;;;;;25.45;12.02;;;9.20;99.90;;;;;;5010946;28;20037;-77
2021/12/16 07:57:46;;;;;;;35.97;13.50;;;9.20;99.90;;;;;;5007119;28;20026;-77
2021/12/16 08:00:22;;;;;;;23.85;10.90;;;9.20;99.90;;;;;;4990319;28;20105;-76
2021/12/16 08:02:49;;;;;;;28.25;12.13;;;9.20;99.90;;;;;;5010170;28;20057;-77
2021/12/16 08:05:17;;;;;;;30.52;11.90;;;9.30;99.90;;;;;;4992976;28;20045;-78
2021/12/16 08:07:43;;;;;;;23.05;10.52;;;9.40;99.90;;;;;;5009316;28;20092;-77
2021/12/16 08:10:13;;;;;;;23.08;9.40;;;9.40;99.90;;;;;;5010712;28;20034;-77
2021/12/16 08:12:39;;;;;;;23.40;9.83;;;9.40;99.90;;;;;;5009375;28;20060;-78
2021/12/16 08:15:06;;;;;;;22.70;9.73;;;9.40;99.90;;;;;;5009005;28;20360;-78
2021/12/16 08:17:32;;;;;;;21.98;10.02;;;9.40;99.90;;;;;;5010432;28;20018;-77
2021/12/16 08:19:58;;;;;;;22.95;10.02;;;9.40;99.90;;;;;;5011762;28;20030;-76
2021/12/16 08:22:24;;;;;;;23.73;9.52;;;9.30;99.90;;;;;;5007679;28;20092;-77
2021/12/16 08:24:50;;;;;;;21.02;9.77;;;9.30;99.90;;;;;;5007334;28;20037;-77
2021/12/16 08:27:17;;;;;;;26.67;10.18;;;9.40;99.90;;;;;;5009730;28;20109;-77
2021/12/16 08:29:44;;;;;;;22.52;10.73;;;9.40;99.90;;;;;;5011377;28;20030;-77
2021/12/16 08:32:10;;;;;;;22.40;10.45;;;9.40;99.90;;;;;;5007646;28;20030;-76
2021/12/16 08:34:39;;;;;;;19.30;9.25;;;9.30;99.90;;;;;;5007924;28;20369;-76
2021/12/16 08:37:07;;;;;;;20.35;9.13;;;9.30;99.90;;;;;;5011383;28;20060;-76
2021/12/16 08:39:34;;;;;;;22.25;10.00;;;9.30;99.90;;;;;;4994278;28;20055;-77
2021/12/16 08:42:00;;;;;;;18.38;8.25;;;9.40;99.90;;;;;;4993111;28;20760;-77
2021/12/16 08:44:27;;;;;;;22.27;9.15;;;9.40;99.90;;;;;;5010586;28;20026;-77
2021/12/16 08:46:56;;;;;;;15.32;9.10;;;9.40;99.90;;;;;;5012818;28;20033;-77
2021/12/16 08:49:22;;;;;;;22.77;10.48;;;9.50;99.90;;;;;;5005297;28;20022;-77
2021/12/16 08:51:51;;;;;;;18.65;9.48;;;9.50;99.90;;;;;;5006978;28;20475;-77
2021/12/16 08:54:19;;;;;;;25.23;10.93;;;9.50;99.90;;;;;;4995101;28;20022;-76
2021/12/16 08:56:46;;;;;;;22.52;9.10;;;9.40;99.90;;;;;;4997781;28;20034;-77
2021/12/16 08:59:13;;;;;;;20.60;8.38;;;9.50;99.90;;;;;;4996804;28;20025;-78
2021/12/16 09:01:43;;;;;;;16.55;7.30;;;9.50;99.90;;;;;;5013627;28;20026;-76
2021/12/16 09:04:10;;;;;;;16.23;6.95;;;9.40;99.90;;;;;;5016611;28;20029;-77
2021/12/16 09:06:36;;;;;;;18.05;8.30;;;9.40;99.90;;;;;;4997743;28;20072;-78
2021/12/16 09:09:06;;;;;;;21.08;9.30;;;9.50;99.90;;;;;;5014556;28;20053;-79
2021/12/16 09:11:37;;;;;;;17.90;7.82;;;9.50;99.90;;;;;;5016631;28;20038;-78
2021/12/16 09:14:03;;;;;;;17.30;7.18;;;9.50;99.90;;;;;;4981634;28;20090;-78
2021/12/16 09:16:33;;;;;;;29.65;13.68;;;9.50;99.90;;;;;;4996610;28;20034;-77
2021/12/16 09:19:01;;;;;;;16.10;8.60;;;9.50;99.90;;;;;;4997201;28;20022;-78
2021/12/16 09:21:31;;;;;;;17.88;7.65;;;9.50;99.90;;;;;;5015089;28;20323;-76
2021/12/16 09:23:59;;;;;;;14.23;6.53;;;9.50;99.90;;;;;;5011165;28;20026;-77
2021/12/16 09:26:26;;;;;;;11.55;5.93;;;9.50;99.90;;;;;;5012184;28;20468;-78
2021/12/16 09:28:53;;;;;;;16.13;6.22;;;9.40;99.90;;;;;;5016086;28;20117;-77
2021/12/16 09:31:23;;;;;;;11.27;6.03;;;9.40;99.90;;;;;;4997438;28;20029;-79
2021/12/16 09:33:52;;;;;;;13.95;5.60;;;9.40;99.90;;;;;;5011953;28;20022;-75
2021/12/16 09:36:22;;;;;;;14.90;7.13;;;9.50;99.90;;;;;;4993169;28;20018;-77
2021/12/16 09:38:49;;;;;;;10.95;6.07;;;9.50;99.90;;;;;;4979520;28;20026;-77
2021/12/16 09:41:17;;;;;;;12.02;6.03;;;9.40;99.90;;;;;;4998960;28;20029;-76
2021/12/16 09:43:46;;;;;;;11.57;5.65;;;9.50;99.90;;;;;;4997469;28;20423;-77
2021/12/16 09:46:16;;;;;;;10.35;5.72;;;9.50;99.90;;;;;;4992518;28;20105;-77
2021/12/16 09:48:42;;;;;;;15.10;6.70;;;9.50;99.90;;;;;;5011384;28;20030;-77
2021/12/16 09:51:16;;;;;;;10.57;5.60;;;9.40;99.90;;;;;;5014012;28;20026;-77
2021/12/16 09:53:42;;;;;;;12.85;5.68;;;9.50;99.90;;;;;;5011324;28;20061;-77
2021/12/16 09:56:09;;;;;;;14.75;5.72;;;9.50;99.90;;;;;;5011105;28;20026;-77
2021/12/16 09:58:40;;;;;;;15.13;6.28;;;9.60;99.90;;;;;;5005627;28;20535;-76
2021/12/16 10:01:09;;;;;;;;;;;9.60;99.90;;;;;;5009667;28;20200;-76
2021/12/16 10:03:37;;;;;;;11.95;5.45;;;9.60;99.90;;;;;;5016412;28;19920;-76
2021/12/16 10:06:03;;;;;;;13.15;5.78;;;9.60;99.90;;;;;;5015377;28;20036;-77
2021/12/16 10:08:29;;;;;;;14.15;5.65;;;9.50;99.90;;;;;;5001627;28;20022;-79
2021/12/16 10:10:55;;;;;;;8.77;5.00;;;9.60;99.90;;;;;;5019611;28;20124;-78
2021/12/16 10:13:31;;;;;;;11.50;5.38;;;9.60;99.90;;;;;;4997899;28;20072;-77
2021/12/16 10:18:28;;;;;;;9.18;3.97;;;9.60;99.90;;;;;;4995852;28;20032;-77
2021/12/16 10:20:58;;;;;;;9.73;3.20;;;9.60;99.90;;;;;;4980576;28;20387;-77
2021/12/16 10:23:23;;;;;;;7.45;3.25;;;9.70;99.90;;;;;;4979590;28;20018;-78
2021/12/16 10:25:55;;;;;;;8.88;3.83;;;9.70;99.90;;;;;;5014314;28;20885;-78
2021/12/16 10:28:25;;;;;;;10.23;3.35;;;9.80;99.90;;;;;;5013936;28;20117;-77
2021/12/16 10:31:02;;;;;;;9.05;3.92;;;9.90;99.90;;;;;;5013816;28;20093;-77
2021/12/16 10:33:31;;;;;;;10.73;3.70;;;9.90;99.90;;;;;;4997241;28;20451;-78
2021/12/16 10:36:12;;;;;;;12.80;3.90;;;9.80;99.90;;;;;;5011937;28;20025;-77
2021/12/16 10:38:41;;;;;;;11.20;4.13;;;9.80;99.90;;;;;;5012264;28;20033;-77
2021/12/16 10:41:12;;;;;;;12.10;4.47;;;9.80;99.90;;;;;;5010051;28;20026;-76
2021/12/16 10:43:45;;;;;;;13.07;4.03;;;9.80;99.90;;;;;;5009708;28;20112;-77
2021/12/16 10:46:16;;;;;;;9.45;4.28;;;9.80;99.90;;;;;;4990382;28;20107;-77
2021/12/16 10:48:55;;;;;;;13.70;5.63;;;9.80;99.90;;;;;;4992304;28;20073;-76
2021/12/16 10:51:27;;;;;;;9.55;4.40;;;9.80;99.90;;;;;;4991594;28;20163;-77
2021/12/16 10:54:13;;;;;;;11.93;5.32;;;9.80;99.90;;;;;;5012321;28;20073;-77
2021/12/16 10:56:55;;;;;;;13.45;5.55;;;9.90;99.90;;;;;;5008651;28;20867;-76
2021/12/16 10:59:32;;;;;;;12.88;6.68;;;9.90;99.90;;;;;;5008557;28;20030;-77
2021/12/16 11:02:07;;;;;;;16.40;6.95;;;9.80;99.90;;;;;;4988758;28;20022;-76
2021/12/16 11:04:51;;;;;;;14.68;6.95;;;9.80;99.90;;;;;;5009751;28;20044;-78
2021/12/16 11:07:25;;;;;;;18.08;6.53;;;9.90;99.90;;;;;;5011042;28;20038;-76
2021/12/16 11:10:15;;;;;;;15.38;6.65;;;9.90;99.90;;;;;;5012365;28;20045;-77
2021/12/16 11:12:51;;;;;;;21.27;7.03;;;9.80;99.90;;;;;;4997197;28;20680;-77
2021/12/16 11:15:29;;;;;;;14.95;5.75;;;9.80;99.90;;;;;;5000048;28;20068;-78
2021/12/16 11:17:58;;;;;;;14.68;5.47;;;9.90;99.90;;;;;;5015381;28;20616;-79
2021/12/16 11:20:37;;;;;;;9.35;4.55;;;9.90;99.90;;;;;;5012288;28;20085;-77
2021/12/16 11:23:08;;;;;;;11.50;4.72;;;10.00;99.90;;;;;;5010009;28;20018;-77
2021/12/16 11:25:46;;;;;;;12.07;4.30;;;9.90;99.90;;;;;;5007340;28;21043;-76
2021/12/16 11:28:39;;;;;;;14.43;4.43;;;9.90;99.90;;;;;;5011214;28;20057;-78
2021/12/16 11:31:07;;;;;;;10.85;4.18;;;9.90;99.90;;;;;;4978810;28;20033;-75
2021/12/16 11:33:42;;;;;;;12.38;3.60;;;9.90;99.90;;;;;;5008675;28;20083;-75
2021/12/16 11:36:25;;;;;;;18.13;3.75;;;10.00;99.90;;;;;;5008690;28;20392;-75
2021/12/16 11:39:07;;;;;;;10.90;3.33;;;10.00;99.90;;;;;;4991566;28;20022;-75
2021/12/16 11:41:40;;;;;;;11.05;3.08;;;10.00;99.90;;;;;;5005633;28;21054;-76
2021/12/16 11:44:11;;;;;;;14.93;3.10;;;9.90;99.90;;;;;;5005587;28;20325;-75
2021/12/16 11:46:37;;;;;;;;;;;10.00;99.90;;;;;;5004387;28;20137;-76
2021/12/16 11:49:08;;;;;;;16.15;3.70;;;9.90;99.90;;;;;;5007981;28;20344;-75
2021/12/16 11:51:39;;;;;;;8.57;3.05;;;9.90;99.90;;;;;;5007889;28;20026;-76
2021/12/16 11:54:32;;;;;;;16.80;3.88;;;9.80;99.90;;;;;;5008308;28;20052;-76
2021/12/16 11:57:28;;;;;;;15.80;3.85;;;9.80;99.90;;;;;;4982948;28;20069;-74
2021/12/16 11:59:56;;;;;;;13.32;2.83;;;9.80;99.90;;;;;;5009591;28;20026;-74
2021/12/16 12:02:41;;;;;;;13.82;3.35;;;9.70;99.90;;;;;;5004272;28;20112;-76
2021/12/16 12:05:31;;;;;;;18.30;3.40;;;9.80;99.90;;;;;;4992020;28;20498;-75
2021/12/16 12:08:03;;;;;;;13.23;2.92;;;9.70;99.90;;;;;;5009421;28;20488;-75
2021/12/16 12:10:50;;;;;;;14.98;3.15;;;9.60;99.90;;;;;;4989989;28;20034;-75
2021/12/16 12:13:27;;;;;;;12.60;3.15;;;9.50;99.90;;;;;;4990528;28;20356;-75
2021/12/16 12:16:08;;;;;;;15.88;3.20;;;9.50;99.90;;;;;;5004690;28;20412;-74
2021/12/16 12:18:54;;;;;;;12.18;3.45;;;9.50;99.90;;;;;;5007689;28;20404;-74
2021/12/16 12:21:25;;;;;;;13.63;3.00;;;9.40;99.90;;;;;;5005240;28;20510;-75
2021/12/16 12:23:59;;;;;;;20.63;3.28;;;9.40;99.90;;;;;;5008616;28;20025;-75
2021/12/16 12:26:27;;;;;;;12.77;2.65;;;9.40;99.90;;;;;;5012175;28;20033;-75
2021/12/16 12:28:57;;;;;;;15.55;3.47;;;9.40;99.90;;;;;;5010751;28;20026;-75
2021/12/16 12:31:25;;;;;;;11.77;2.83;;;9.50;99.90;;;;;;5019224;28;20456;-74
2021/12/16 12:33:52;;;;;;;13.65;2.83;;;9.50;99.90;;;;;;5010866;28;20031;-76
2021/12/16 12:36:19;;;;;;;13.35;2.97;;;9.50;99.90;;;;;;5014488;28;20029;-76
2021/12/16 12:38:46;;;;;;;10.27;3.17;;;9.50;99.90;;;;;;5012811;28;20023;-76
2021/12/16 12:41:12;;;;;;;14.13;3.03;;;9.50;99.90;;;;;;5008048;28;20030;-75
2021/12/16 12:43:38;;;;;;;12.98;2.33;;;9.50;99.90;;;;;;5007139;28;20086;-76
2021/12/16 12:46:06;;;;;;;13.50;3.10;;;9.60;99.90;;;;;;5007488;28;20091;-76
2021/12/16 12:48:39;;;;;;;9.85;2.42;;;9.60;99.90;;;;;;4989164;28;20026;-77
2021/12/16 12:51:07;;;;;;;12.95;2.90;;;9.60;99.90;;;;;;5011154;28;20029;-76
2021/12/16 12:53:51;;;;;;;12.60;2.20;;;9.60;99.90;;;;;;4991716;28;20502;-77
2021/12/16 12:56:30;;;;;;;15.95;4.25;;;9.60;99.90;;;;;;5010200;28;20025;-76
2021/12/16 12:59:11;;;;;;;18.98;3.38;;;9.70;99.90;;;;;;5016283;28;20021;-76
2021/12/16 13:01:52;;;;;;;14.48;2.72;;;9.70;99.90;;;;;;5009280;28;20029;-76
2021/12/16 13:04:21;;;;;;;16.30;2.60;;;9.60;99.90;;;;;;5010107;28;20178;-75
2021/12/16 13:06:51;;;;;;;16.35;2.70;;;9.60;99.90;;;;;;4991373;28;20030;-78
2021/12/16 13:09:33;;;;;;;14.13;2.72;;;9.60;99.90;;;;;;4991609;28;20034;-76
2021/12/16 13:12:01;;;;;;;10.68;2.65;;;9.60;99.90;;;;;;5009248;28;20037;-76
2021/12/16 13:14:46;;;;;;;13.52;2.70;;;9.50;99.90;;;;;;5011306;28;20041;-76
2021/12/16 13:29:01;;;;;;;12.02;2.60;;;9.20;99.90;;;;;;4949797;28;20121;-75
2021/12/16 13:31:43;;;;;;;13.82;3.30;;;9.20;99.90;;;;;;5010742;28;20044;-76
2021/12/16 13:34:54;;;;;;;13.07;2.95;;;9.10;99.90;;;;;;4994349;28;20393;-76
2021/12/16 13:37:35;;;;;;;15.95;3.92;;;9.20;99.90;;;;;;5012230;28;20022;-75
2021/12/16 13:40:11;;;;;;;16.20;2.78;;;9.30;99.90;;;;;;5011674;28;20392;-76
2021/12/16 13:42:45;;;;;;;10.48;2.72;;;9.30;99.90;;;;;;5015206;28;20030;-75
2021/12/16 13:45:17;;;;;;;17.05;3.03;;;9.30;99.90;;;;;;4983331;28;20097;-76
2021/12/16 14:02:00;;;;;;;16.55;3.00;;;9.30;99.90;;;;;;5014025;28;20029;-76
2021/12/16 14:04:56;;;;;;;;;;;9.20;99.90;;;;;;5017927;28;20026;-75
2021/12/16 14:07:54;;;;;;;13.50;3.70;;;9.20;99.90;;;;;;5013141;28;19937;-76
2021/12/16 14:10:32;;;;;;;14.32;3.05;;;9.20;99.90;;;;;;4990445;28;20057;-75
2021/12/16 14:16:35;;;;;;;;;;;9.10;99.90;;;;;;4997834;28;20037;-75
2021/12/16 14:31:05;;;;;;;13.52;2.55;;;9.20;99.90;;;;;;5013231;28;21759;-76
2021/12/16 14:34:08;;;;;;;14.45;2.47;;;9.10;99.90;;;;;;4956046;28;20038;-75
2021/12/16 14:41:35;;;;;;;13.15;2.55;;;9.00;99.90;;;;;;4993619;28;20684;-74
2021/12/16 14:49:46;;;;;;;9.00;2.45;;;9.00;99.90;;;;;;5017327;28;20040;-75
2021/12/16 14:52:22;;;;;;;10.20;2.75;;;9.00;99.90;;;;;;5017725;28;20013;-74
2021/12/16 14:54:54;;;;;;;13.55;3.53;;;9.00;99.90;;;;;;5001549;28;20030;-74
2021/12/16 14:57:32;;;;;;;8.98;2.58;;;9.00;99.90;;;;;;5011546;28;20036;-75
2021/12/16 14:59:58;;;;;;;13.80;2.63;;;9.00;99.90;;;;;;5013530;28;20357;-75
2021/12/16 15:02:31;;;;;;;13.43;2.92;;;9.00;99.90;;;;;;5011967;28;20029;-74
2021/12/16 15:04:56;;;;;;;12.63;2.50;;;9.00;99.90;;;;;;4978812;28;20037;-75
2021/12/16 15:07:25;;;;;;;17.98;3.28;;;9.00;99.90;;;;;;5011261;28;20026;-74
2021/12/16 15:09:53;;;;;;;9.93;3.47;;;8.90;99.90;;;;;;5018594;28;20038;-74
2021/12/16 15:37:34;;;;;;;8.07;2.70;;;8.60;99.90;;;;;;5005085;28;20038;-75
2021/12/16 15:40:17;;;;;;;12.77;2.90;;;8.60;99.90;;;;;;4995070;28;20017;-75
2021/12/16 15:42:48;;;;;;;12.40;3.00;;;8.50;99.90;;;;;;4995022;28;20026;-75
2021/12/16 15:45:17;;;;;;;;;;;8.50;99.90;;;;;;5013539;28;20030;-75
2021/12/16 15:47:46;;;;;;;11.40;2.58;;;8.50;99.90;;;;;;5013651;28;19905;-75
2021/12/16 15:50:15;;;;;;;12.07;3.33;;;8.50;99.90;;;;;;5015638;28;20021;-75
2021/12/16 15:52:45;;;;;;;14.23;3.20;;;8.50;99.90;;;;;;5012625;28;20040;-75
2021/12/16 15:55:23;;;;;;;12.75;3.13;;;8.40;99.90;;;;;;5012228;28;20033;-75
2021/12/16 15:57:49;;;;;;;14.32;3.55;;;8.40;99.90;;;;;;5012053;28;20018;-75
2021/12/16 16:00:21;;;;;;;7.15;2.67;;;8.40;99.90;;;;;;5011437;28;20036;-74
2021/12/16 16:02:48;;;;;;;11.65;3.45;;;8.40;99.90;;;;;;5011773;28;20365;-74
2021/12/16 16:05:14;;;;;;;11.48;3.00;;;8.40;99.90;;;;;;4995078;28;20076;-75
2021/12/16 16:07:41;;;;;;;17.25;4.63;;;8.40;99.90;;;;;;5012718;28;20029;-74
2021/12/16 16:10:10;;;;;;;12.90;3.00;;;8.40;99.90;;;;;;5012215;28;20058;-74
2021/12/16 16:12:37;;;;;;;13.57;4.00;;;8.40;99.90;;;;;;5012330;28;20466;-74
2021/12/16 16:15:16;;;;;;;16.63;4.75;;;8.50;99.90;;;;;;4993644;28;20141;-74
2021/12/16 16:18:00;;;;;;;13.55;3.90;;;8.50;99.90;;;;;;5010742;28;20029;-74
2021/12/16 16:20:33;;;;;;;16.80;3.50;;;8.40;99.90;;;;;;5012622;28;20033;-73
2021/12/16 16:23:09;;;;;;;14.32;4.15;;;8.40;99.90;;;;;;5012146;28;20101;-75
2021/12/16 16:25:36;;;;;;;10.70;3.80;;;8.40;99.90;;;;;;5010099;28;20065;-75
2021/12/16 16:28:04;;;;;;;12.85;4.20;;;8.40;99.90;;;;;;5010166;28;20032;-77
2021/12/16 16:30:31;;;;;;;13.90;4.00;;;8.40;99.90;;;;;;5012213;28;20061;-74
2021/12/16 16:33:01;;;;;;;13.77;4.25;;;8.40;99.90;;;;;;5011796;28;20108;-75
2021/12/16 16:35:28;;;;;;;17.83;4.43;;;8.40;99.90;;;;;;5010568;28;20030;-74
2021/12/16 16:38:05;;;;;;;14.95;4.57;;;8.30;99.90;;;;;;5012052;28;20022;-74
2021/12/16 16:40:56;;;;;;;15.38;4.55;;;8.40;99.90;;;;;;5012250;28;20486;-74
2021/12/16 16:43:29;;;;;;;17.88;4.25;;;8.30;99.90;;;;;;4947647;29;20039;-74
2021/12/16 16:46:04;;;;;;;12.57;3.90;;;8.30;99.90;;;;;;4951921;28;20023;-74
2021/12/16 16:48:54;;;;;;;13.65;3.72;;;8.30;99.90;;;;;;4951193;28;20039;-75
2021/12/16 16:51:27;;;;;;;12.18;3.88;;;8.30;99.90;;;;;;4947813;28;20124;-74
2021/12/16 16:54:04;;;;;;;19.70;4.78;;;8.30;99.90;;;;;;4948556;29;20406;-73
2021/12/16 16:56:34;;;;;;;14.52;4.60;;;8.30;99.90;;;;;;4947886;28;20062;-73
2021/12/16 16:59:04;;;;;;;15.77;4.07;;;8.30;99.90;;;;;;4933104;29;20066;-74
2021/12/16 17:01:31;;;;;;;16.95;4.82;;;8.30;99.90;;;;;;4949437;28;20035;-75